sensor_id;sensor_type;location;lat;lon;timestamp;P1;durP1;ratioP1;P2;durP2;ratioP2
39020;SDS011;25188;51.958;5.842;2023-07-16T00:02:11;3.83;;;1.00;;
39020;SDS011;25188;51.958;5.842;2023-07-16T00:04:37;4.53;;;1.17;;
39020;SDS011;25188;51.958;5.842;2023-07-16T00:07:03;7.10;;;2.28;;
39020;SDS011;25188;51.958;5.842;2023-07-16T00:09:28;4.47;;;1.25;;
39020;SDS011;25188;51.958;5.842;2023-07-16T00:11:56;5.85;;;1.67;;
39020;SDS011;25188;51.958;5.842;2023-07-16T00:14:21;4.18;;;1.08;;
39020;SDS011;25188;51.958;5.842;2023-07-16T00:16:47;5.45;;;1.13;;
39020;SDS011;25188;51.958;5.842;2023-07-16T00:19:14;8.27;;;1.20;;
39020;SDS011;25188;51.958;5.842;2023-07-16T00:21:40;3.83;;;0.95;;
39020;SDS011;25188;51.958;5.842;2023-07-16T00:24:05;5.32;;;1.27;;
39020;SDS011;25188;51.958;5.842;2023-07-16T00:26:31;4.90;;;1.00;;
39020;SDS011;25188;51.958;5.842;2023-07-16T00:28:57;4.05;;;0.95;;
39020;SDS011;25188;51.958;5.842;2023-07-16T00:31:22;5.70;;;1.33;;
39020;SDS011;25188;51.958;5.842;2023-07-16T00:33:48;4.55;;;1.40;;
39020;SDS011;25188;51.958;5.842;2023-07-16T00:36:13;6.07;;;1.40;;
39020;SDS011;25188;51.958;5.842;2023-07-16T00:38:39;3.83;;;1.55;;
39020;SDS011;25188;51.958;5.842;2023-07-16T00:41:06;5.20;;;1.77;;
39020;SDS011;25188;51.958;5.842;2023-07-16T00:43:32;6.90;;;1.50;;
39020;SDS011;25188;51.958;5.842;2023-07-16T00:45:57;3.38;;;1.15;;
39020;SDS011;25188;51.958;5.842;2023-07-16T00:48:23;5.88;;;1.98;;
39020;SDS011;25188;51.958;5.842;2023-07-16T00:50:49;6.00;;;1.73;;
39020;SDS011;25188;51.958;5.842;2023-07-16T00:53:17;7.05;;;1.50;;
39020;SDS011;25188;51.958;5.842;2023-07-16T00:55:43;4.78;;;1.70;;
39020;SDS011;25188;51.958;5.842;2023-07-16T00:58:08;7.03;;;2.05;;
39020;SDS011;25188;51.958;5.842;2023-07-16T01:00:35;7.90;;;1.85;;
39020;SDS011;25188;51.958;5.842;2023-07-16T01:03:02;5.82;;;1.33;;
39020;SDS011;25188;51.958;5.842;2023-07-16T01:06:16;5.40;;;1.95;;
39020;SDS011;25188;51.958;5.842;2023-07-16T01:08:30;5.70;;;1.60;;
39020;SDS011;25188;51.958;5.842;2023-07-16T01:11:00;5.15;;;1.70;;
39020;SDS011;25188;51.958;5.842;2023-07-16T01:13:28;5.80;;;1.65;;
39020;SDS011;25188;51.958;5.842;2023-07-16T01:15:54;6.18;;;1.90;;
39020;SDS011;25188;51.958;5.842;2023-07-16T01:18:20;7.38;;;1.80;;
39020;SDS011;25188;51.958;5.842;2023-07-16T01:20:45;10.32;;;1.48;;
39020;SDS011;25188;51.958;5.842;2023-07-16T01:23:26;7.50;;;1.50;;
39020;SDS011;25188;51.958;5.842;2023-07-16T01:29:04;7.80;;;1.73;;
39020;SDS011;25188;51.958;5.842;2023-07-16T01:31:49;4.53;;;1.45;;
39020;SDS011;25188;51.958;5.842;2023-07-16T01:34:16;11.60;;;1.50;;
39020;SDS011;25188;51.958;5.842;2023-07-16T01:36:42;7.00;;;1.70;;
39020;SDS011;25188;51.958;5.842;2023-07-16T01:39:09;8.70;;;1.65;;
39020;SDS011;25188;51.958;5.842;2023-07-16T01:41:34;8.35;;;1.85;;
39020;SDS011;25188;51.958;5.842;2023-07-16T01:44:00;8.88;;;1.83;;
39020;SDS011;25188;51.958;5.842;2023-07-16T01:46:25;7.32;;;1.50;;
39020;SDS011;25188;51.958;5.842;2023-07-16T01:48:51;7.07;;;1.52;;
39020;SDS011;25188;51.958;5.842;2023-07-16T01:51:17;5.50;;;1.30;;
39020;SDS011;25188;51.958;5.842;2023-07-16T01:53:45;5.47;;;1.65;;
39020;SDS011;25188;51.958;5.842;2023-07-16T01:56:10;6.47;;;1.23;;
39020;SDS011;25188;51.958;5.842;2023-07-16T01:58:37;7.60;;;1.30;;
39020;SDS011;25188;51.958;5.842;2023-07-16T02:01:03;7.53;;;1.27;;
39020;SDS011;25188;51.958;5.842;2023-07-16T02:03:29;6.93;;;1.50;;
39020;SDS011;25188;51.958;5.842;2023-07-16T02:05:54;7.13;;;1.35;;
39020;SDS011;25188;51.958;5.842;2023-07-16T02:08:20;6.35;;;1.48;;
39020;SDS011;25188;51.958;5.842;2023-07-16T02:10:49;8.80;;;1.35;;
39020;SDS011;25188;51.958;5.842;2023-07-16T02:13:15;5.10;;;1.33;;
39020;SDS011;25188;51.958;5.842;2023-07-16T02:15:42;6.30;;;2.13;;
39020;SDS011;25188;51.958;5.842;2023-07-16T02:18:07;8.00;;;1.70;;
39020;SDS011;25188;51.958;5.842;2023-07-16T02:20:33;5.57;;;1.33;;
39020;SDS011;25188;51.958;5.842;2023-07-16T02:22:59;5.70;;;1.33;;
39020;SDS011;25188;51.958;5.842;2023-07-16T02:25:24;5.32;;;1.48;;
39020;SDS011;25188;51.958;5.842;2023-07-16T02:27:50;8.43;;;1.40;;
39020;SDS011;25188;51.958;5.842;2023-07-16T02:30:16;6.55;;;1.35;;
39020;SDS011;25188;51.958;5.842;2023-07-16T02:32:42;6.53;;;1.80;;
39020;SDS011;25188;51.958;5.842;2023-07-16T02:35:08;7.90;;;1.65;;
39020;SDS011;25188;51.958;5.842;2023-07-16T02:37:34;5.57;;;1.60;;
39020;SDS011;25188;51.958;5.842;2023-07-16T02:40:00;9.45;;;1.85;;
39020;SDS011;25188;51.958;5.842;2023-07-16T02:42:25;4.68;;;1.38;;
39020;SDS011;25188;51.958;5.842;2023-07-16T02:44:51;5.03;;;1.40;;
39020;SDS011;25188;51.958;5.842;2023-07-16T02:47:17;4.63;;;1.60;;
39020;SDS011;25188;51.958;5.842;2023-07-16T02:49:43;4.20;;;1.50;;
39020;SDS011;25188;51.958;5.842;2023-07-16T02:52:08;6.70;;;2.13;;
39020;SDS011;25188;51.958;5.842;2023-07-16T02:54:37;7.85;;;1.65;;
39020;SDS011;25188;51.958;5.842;2023-07-16T02:57:03;5.95;;;1.23;;
39020;SDS011;25188;51.958;5.842;2023-07-16T02:59:30;4.40;;;1.23;;
39020;SDS011;25188;51.958;5.842;2023-07-16T03:01:55;6.35;;;1.15;;
39020;SDS011;25188;51.958;5.842;2023-07-16T03:04:21;5.35;;;1.33;;
39020;SDS011;25188;51.958;5.842;2023-07-16T03:06:47;4.78;;;1.38;;
39020;SDS011;25188;51.958;5.842;2023-07-16T03:09:12;6.75;;;1.48;;
39020;SDS011;25188;51.958;5.842;2023-07-16T03:11:38;5.55;;;1.40;;
39020;SDS011;25188;51.958;5.842;2023-07-16T03:14:04;16.73;;;1.85;;
39020;SDS011;25188;51.958;5.842;2023-07-16T03:16:29;6.22;;;1.30;;
39020;SDS011;25188;51.958;5.842;2023-07-16T03:18:55;4.78;;;1.30;;
39020;SDS011;25188;51.958;5.842;2023-07-16T03:21:20;4.50;;;1.35;;
39020;SDS011;25188;51.958;5.842;2023-07-16T03:23:46;7.47;;;1.20;;
39020;SDS011;25188;51.958;5.842;2023-07-16T03:26:12;5.75;;;1.42;;
39020;SDS011;25188;51.958;5.842;2023-07-16T03:28:37;9.52;;;1.70;;
39020;SDS011;25188;51.958;5.842;2023-07-16T03:31:03;5.85;;;1.45;;
39020;SDS011;25188;51.958;5.842;2023-07-16T03:33:28;6.30;;;1.88;;
39020;SDS011;25188;51.958;5.842;2023-07-16T03:35:54;9.57;;;1.73;;
39020;SDS011;25188;51.958;5.842;2023-07-16T03:38:20;11.35;;;1.60;;
39020;SDS011;25188;51.958;5.842;2023-07-16T03:40:49;6.72;;;2.15;;
39020;SDS011;25188;51.958;5.842;2023-07-16T03:43:15;8.30;;;2.15;;
39020;SDS011;25188;51.958;5.842;2023-07-16T03:45:41;5.53;;;1.60;;
39020;SDS011;25188;51.958;5.842;2023-07-16T03:48:07;9.43;;;2.05;;
39020;SDS011;25188;51.958;5.842;2023-07-16T03:50:33;8.90;;;1.90;;
39020;SDS011;25188;51.958;5.842;2023-07-16T03:52:59;8.95;;;2.20;;
39020;SDS011;25188;51.958;5.842;2023-07-16T03:55:25;5.38;;;1.83;;
39020;SDS011;25188;51.958;5.842;2023-07-16T03:57:51;9.13;;;1.90;;
39020;SDS011;25188;51.958;5.842;2023-07-16T04:00:17;10.48;;;2.00;;
39020;SDS011;25188;51.958;5.842;2023-07-16T04:02:42;6.72;;;1.70;;
39020;SDS011;25188;51.958;5.842;2023-07-16T04:05:09;8.18;;;2.10;;
39020;SDS011;25188;51.958;5.842;2023-07-16T04:07:35;8.45;;;1.88;;
39020;SDS011;25188;51.958;5.842;2023-07-16T04:10:01;6.68;;;1.83;;
39020;SDS011;25188;51.958;5.842;2023-07-16T04:12:27;9.40;;;2.50;;
39020;SDS011;25188;51.958;5.842;2023-07-16T04:14:56;5.53;;;1.75;;
39020;SDS011;25188;51.958;5.842;2023-07-16T04:17:23;4.75;;;1.60;;
39020;SDS011;25188;51.958;5.842;2023-07-16T04:19:49;8.25;;;1.85;;
39020;SDS011;25188;51.958;5.842;2023-07-16T04:22:15;4.40;;;1.80;;
39020;SDS011;25188;51.958;5.842;2023-07-16T04:24:41;8.60;;;2.05;;
39020;SDS011;25188;51.958;5.842;2023-07-16T04:27:06;4.47;;;1.83;;
39020;SDS011;25188;51.958;5.842;2023-07-16T04:29:32;5.40;;;1.55;;
39020;SDS011;25188;51.958;5.842;2023-07-16T04:31:58;4.80;;;1.30;;
39020;SDS011;25188;51.958;5.842;2023-07-16T04:34:24;7.45;;;2.55;;
39020;SDS011;25188;51.958;5.842;2023-07-16T04:36:50;4.30;;;1.60;;
39020;SDS011;25188;51.958;5.842;2023-07-16T04:39:15;8.35;;;1.88;;
39020;SDS011;25188;51.958;5.842;2023-07-16T04:41:41;6.70;;;1.98;;
39020;SDS011;25188;51.958;5.842;2023-07-16T04:44:07;8.02;;;2.10;;
39020;SDS011;25188;51.958;5.842;2023-07-16T04:46:32;7.03;;;2.28;;
39020;SDS011;25188;51.958;5.842;2023-07-16T04:48:59;7.60;;;1.92;;
39020;SDS011;25188;51.958;5.842;2023-07-16T04:51:24;6.20;;;2.03;;
39020;SDS011;25188;51.958;5.842;2023-07-16T04:53:50;5.60;;;2.25;;
39020;SDS011;25188;51.958;5.842;2023-07-16T04:56:16;10.45;;;2.80;;
39020;SDS011;25188;51.958;5.842;2023-07-16T04:58:42;7.60;;;2.00;;
39020;SDS011;25188;51.958;5.842;2023-07-16T05:01:08;6.15;;;2.33;;
39020;SDS011;25188;51.958;5.842;2023-07-16T05:03:35;6.15;;;2.20;;
39020;SDS011;25188;51.958;5.842;2023-07-16T05:06:01;7.07;;;2.28;;
39020;SDS011;25188;51.958;5.842;2023-07-16T05:08:27;6.47;;;2.22;;
39020;SDS011;25188;51.958;5.842;2023-07-16T05:10:52;8.30;;;2.38;;
39020;SDS011;25188;51.958;5.842;2023-07-16T05:13:18;5.88;;;2.20;;
39020;SDS011;25188;51.958;5.842;2023-07-16T05:15:44;7.85;;;2.22;;
39020;SDS011;25188;51.958;5.842;2023-07-16T05:18:09;6.80;;;2.90;;
39020;SDS011;25188;51.958;5.842;2023-07-16T05:20:35;5.63;;;2.42;;
39020;SDS011;25188;51.958;5.842;2023-07-16T05:23:01;9.63;;;2.80;;
39020;SDS011;25188;51.958;5.842;2023-07-16T05:25:27;7.03;;;2.90;;
39020;SDS011;25188;51.958;5.842;2023-07-16T05:27:52;7.40;;;3.60;;
39020;SDS011;25188;51.958;5.842;2023-07-16T05:30:18;6.10;;;2.50;;
39020;SDS011;25188;51.958;5.842;2023-07-16T05:32:43;7.00;;;2.38;;
39020;SDS011;25188;51.958;5.842;2023-07-16T05:35:09;7.63;;;3.30;;
39020;SDS011;25188;51.958;5.842;2023-07-16T05:37:35;10.95;;;3.08;;
39020;SDS011;25188;51.958;5.842;2023-07-16T05:40:01;6.35;;;2.50;;
39020;SDS011;25188;51.958;5.842;2023-07-16T05:42:28;6.35;;;2.35;;
39020;SDS011;25188;51.958;5.842;2023-07-16T05:44:53;11.32;;;3.15;;
39020;SDS011;25188;51.958;5.842;2023-07-16T05:47:19;6.80;;;2.83;;
39020;SDS011;25188;51.958;5.842;2023-07-16T05:49:44;8.63;;;2.60;;
39020;SDS011;25188;51.958;5.842;2023-07-16T05:52:10;9.43;;;3.05;;
39020;SDS011;25188;51.958;5.842;2023-07-16T05:54:36;7.63;;;3.38;;
39020;SDS011;25188;51.958;5.842;2023-07-16T05:57:01;8.82;;;3.00;;
39020;SDS011;25188;51.958;5.842;2023-07-16T05:59:27;10.55;;;3.20;;
39020;SDS011;25188;51.958;5.842;2023-07-16T06:01:53;7.43;;;2.75;;
39020;SDS011;25188;51.958;5.842;2023-07-16T06:04:18;7.38;;;2.90;;
39020;SDS011;25188;51.958;5.842;2023-07-16T06:06:44;9.63;;;3.60;;
39020;SDS011;25188;51.958;5.842;2023-07-16T06:09:09;8.50;;;3.25;;
39020;SDS011;25188;51.958;5.842;2023-07-16T06:11:36;12.45;;;3.00;;
39020;SDS011;25188;51.958;5.842;2023-07-16T06:14:02;11.57;;;3.70;;
39020;SDS011;25188;51.958;5.842;2023-07-16T06:16:27;11.48;;;3.63;;
39020;SDS011;25188;51.958;5.842;2023-07-16T06:18:53;11.15;;;4.10;;
39020;SDS011;25188;51.958;5.842;2023-07-16T06:21:19;10.55;;;4.70;;
39020;SDS011;25188;51.958;5.842;2023-07-16T06:23:44;7.82;;;3.30;;
39020;SDS011;25188;51.958;5.842;2023-07-16T06:26:10;9.10;;;3.75;;
39020;SDS011;25188;51.958;5.842;2023-07-16T06:28:35;6.75;;;2.95;;
39020;SDS011;25188;51.958;5.842;2023-07-16T06:31:01;9.93;;;3.85;;
39020;SDS011;25188;51.958;5.842;2023-07-16T06:33:27;11.45;;;3.78;;
39020;SDS011;25188;51.958;5.842;2023-07-16T06:35:53;11.57;;;4.20;;
39020;SDS011;25188;51.958;5.842;2023-07-16T06:38:18;8.50;;;3.95;;
39020;SDS011;25188;51.958;5.842;2023-07-16T06:40:48;8.80;;;4.07;;
39020;SDS011;25188;51.958;5.842;2023-07-16T06:43:14;9.90;;;3.53;;
39020;SDS011;25188;51.958;5.842;2023-07-16T06:45:40;12.63;;;4.00;;
39020;SDS011;25188;51.958;5.842;2023-07-16T06:48:06;8.68;;;3.75;;
39020;SDS011;25188;51.958;5.842;2023-07-16T06:50:32;8.65;;;3.55;;
39020;SDS011;25188;51.958;5.842;2023-07-16T06:52:57;8.23;;;3.50;;
39020;SDS011;25188;51.958;5.842;2023-07-16T06:55:23;6.50;;;2.72;;
39020;SDS011;25188;51.958;5.842;2023-07-16T06:57:48;7.20;;;3.33;;
39020;SDS011;25188;51.958;5.842;2023-07-16T07:00:14;7.82;;;3.10;;
39020;SDS011;25188;51.958;5.842;2023-07-16T07:02:40;6.80;;;3.38;;
39020;SDS011;25188;51.958;5.842;2023-07-16T07:05:06;8.40;;;3.25;;
39020;SDS011;25188;51.958;5.842;2023-07-16T07:07:32;6.93;;;3.05;;
39020;SDS011;25188;51.958;5.842;2023-07-16T07:09:57;9.40;;;3.92;;
39020;SDS011;25188;51.958;5.842;2023-07-16T07:12:23;9.82;;;3.85;;
39020;SDS011;25188;51.958;5.842;2023-07-16T07:14:49;12.43;;;3.35;;
39020;SDS011;25188;51.958;5.842;2023-07-16T07:17:14;8.07;;;3.78;;
39020;SDS011;25188;51.958;5.842;2023-07-16T07:19:40;9.10;;;3.05;;
39020;SDS011;25188;51.958;5.842;2023-07-16T07:22:06;9.38;;;4.03;;
39020;SDS011;25188;51.958;5.842;2023-07-16T07:24:32;10.10;;;4.00;;
39020;SDS011;25188;51.958;5.842;2023-07-16T07:26:57;8.40;;;3.55;;
39020;SDS011;25188;51.958;5.842;2023-07-16T07:29:23;9.70;;;4.15;;
39020;SDS011;25188;51.958;5.842;2023-07-16T07:31:49;10.88;;;4.00;;
39020;SDS011;25188;51.958;5.842;2023-07-16T07:34:15;11.05;;;4.10;;
39020;SDS011;25188;51.958;5.842;2023-07-16T07:36:41;8.80;;;3.70;;
39020;SDS011;25188;51.958;5.842;2023-07-16T07:39:07;9.77;;;4.88;;
39020;SDS011;25188;51.958;5.842;2023-07-16T07:41:32;11.20;;;4.03;;
39020;SDS011;25188;51.958;5.842;2023-07-16T07:43:58;10.82;;;4.43;;
39020;SDS011;25188;51.958;5.842;2023-07-16T07:46:24;8.98;;;4.05;;
39020;SDS011;25188;51.958;5.842;2023-07-16T07:48:50;9.60;;;3.45;;
39020;SDS011;25188;51.958;5.842;2023-07-16T07:51:15;6.90;;;3.28;;
39020;SDS011;25188;51.958;5.842;2023-07-16T07:53:41;8.05;;;3.75;;
39020;SDS011;25188;51.958;5.842;2023-07-16T07:56:07;8.32;;;3.65;;
39020;SDS011;25188;51.958;5.842;2023-07-16T07:58:32;9.57;;;3.65;;
39020;SDS011;25188;51.958;5.842;2023-07-16T08:01:03;12.88;;;3.95;;
39020;SDS011;25188;51.958;5.842;2023-07-16T08:03:30;10.38;;;4.30;;
39020;SDS011;25188;51.958;5.842;2023-07-16T08:05:56;9.95;;;3.60;;
39020;SDS011;25188;51.958;5.842;2023-07-16T08:08:21;7.97;;;3.92;;
39020;SDS011;25188;51.958;5.842;2023-07-16T08:10:47;9.13;;;3.55;;
39020;SDS011;25188;51.958;5.842;2023-07-16T08:13:13;7.53;;;3.70;;
39020;SDS011;25188;51.958;5.842;2023-07-16T08:15:38;9.40;;;4.03;;
39020;SDS011;25188;51.958;5.842;2023-07-16T08:18:04;8.25;;;3.72;;
39020;SDS011;25188;51.958;5.842;2023-07-16T08:20:30;9.90;;;3.45;;
39020;SDS011;25188;51.958;5.842;2023-07-16T08:22:55;10.20;;;3.80;;
39020;SDS011;25188;51.958;5.842;2023-07-16T08:25:21;9.60;;;4.70;;
39020;SDS011;25188;51.958;5.842;2023-07-16T08:27:47;15.13;;;4.30;;
39020;SDS011;25188;51.958;5.842;2023-07-16T08:30:13;8.48;;;4.47;;
39020;SDS011;25188;51.958;5.842;2023-07-16T08:32:38;10.30;;;4.35;;
39020;SDS011;25188;51.958;5.842;2023-07-16T08:35:04;9.48;;;4.07;;
39020;SDS011;25188;51.958;5.842;2023-07-16T08:37:30;12.10;;;4.13;;
39020;SDS011;25188;51.958;5.842;2023-07-16T08:39:56;9.93;;;4.13;;
39020;SDS011;25188;51.958;5.842;2023-07-16T08:42:22;8.30;;;3.38;;
39020;SDS011;25188;51.958;5.842;2023-07-16T08:44:48;9.43;;;3.53;;
39020;SDS011;25188;51.958;5.842;2023-07-16T08:47:15;10.13;;;4.15;;
39020;SDS011;25188;51.958;5.842;2023-07-16T08:49:41;7.78;;;3.63;;
39020;SDS011;25188;51.958;5.842;2023-07-16T08:52:21;8.27;;;3.13;;
39020;SDS011;25188;51.958;5.842;2023-07-16T08:54:47;9.27;;;3.70;;
39020;SDS011;25188;51.958;5.842;2023-07-16T08:57:13;10.07;;;4.32;;
39020;SDS011;25188;51.958;5.842;2023-07-16T08:59:39;10.32;;;3.78;;
39020;SDS011;25188;51.958;5.842;2023-07-16T09:02:06;9.65;;;3.75;;
39020;SDS011;25188;51.958;5.842;2023-07-16T09:04:32;8.10;;;3.42;;
39020;SDS011;25188;51.958;5.842;2023-07-16T09:06:58;6.80;;;3.42;;
39020;SDS011;25188;51.958;5.842;2023-07-16T09:09:23;10.48;;;3.92;;
39020;SDS011;25188;51.958;5.842;2023-07-16T09:11:50;8.48;;;3.70;;
39020;SDS011;25188;51.958;5.842;2023-07-16T09:14:17;8.18;;;3.85;;
39020;SDS011;25188;51.958;5.842;2023-07-16T09:16:47;7.22;;;3.40;;
39020;SDS011;25188;51.958;5.842;2023-07-16T09:19:14;7.95;;;3.40;;
39020;SDS011;25188;51.958;5.842;2023-07-16T09:21:42;8.75;;;3.10;;
39020;SDS011;25188;51.958;5.842;2023-07-16T09:24:08;8.65;;;3.70;;
39020;SDS011;25188;51.958;5.842;2023-07-16T09:26:36;7.72;;;3.80;;
39020;SDS011;25188;51.958;5.842;2023-07-16T09:29:06;6.63;;;3.05;;
39020;SDS011;25188;51.958;5.842;2023-07-16T09:31:32;7.88;;;3.70;;
39020;SDS011;25188;51.958;5.842;2023-07-16T09:33:58;5.32;;;3.17;;
39020;SDS011;25188;51.958;5.842;2023-07-16T09:36:24;8.98;;;3.47;;
39020;SDS011;25188;51.958;5.842;2023-07-16T09:38:52;9.82;;;3.67;;
39020;SDS011;25188;51.958;5.842;2023-07-16T09:41:19;6.53;;;3.08;;
39020;SDS011;25188;51.958;5.842;2023-07-16T09:43:46;7.05;;;3.15;;
39020;SDS011;25188;51.958;5.842;2023-07-16T09:46:12;8.13;;;3.38;;
39020;SDS011;25188;51.958;5.842;2023-07-16T09:48:37;8.88;;;3.38;;
39020;SDS011;25188;51.958;5.842;2023-07-16T09:51:03;9.57;;;3.40;;
39020;SDS011;25188;51.958;5.842;2023-07-16T09:53:32;5.70;;;2.85;;
39020;SDS011;25188;51.958;5.842;2023-07-16T09:55:59;6.53;;;3.10;;
39020;SDS011;25188;51.958;5.842;2023-07-16T09:58:27;9.02;;;3.20;;
39020;SDS011;25188;51.958;5.842;2023-07-16T10:00:53;8.70;;;3.42;;
39020;SDS011;25188;51.958;5.842;2023-07-16T10:03:19;9.45;;;4.05;;
39020;SDS011;25188;51.958;5.842;2023-07-16T10:05:45;6.65;;;3.00;;
39020;SDS011;25188;51.958;5.842;2023-07-16T10:08:17;8.35;;;3.28;;
39020;SDS011;25188;51.958;5.842;2023-07-16T10:10:54;6.78;;;2.80;;
39020;SDS011;25188;51.958;5.842;2023-07-16T10:13:22;5.72;;;2.63;;
39020;SDS011;25188;51.958;5.842;2023-07-16T10:15:55;7.30;;;2.78;;
39020;SDS011;25188;51.958;5.842;2023-07-16T10:18:29;11.40;;;3.38;;
39020;SDS011;25188;51.958;5.842;2023-07-16T10:23:42;6.07;;;2.88;;
39020;SDS011;25188;51.958;5.842;2023-07-16T10:26:10;7.15;;;2.55;;
39020;SDS011;25188;51.958;5.842;2023-07-16T10:28:38;6.70;;;3.45;;
39020;SDS011;25188;51.958;5.842;2023-07-16T10:31:04;6.28;;;2.92;;
39020;SDS011;25188;51.958;5.842;2023-07-16T10:33:33;6.80;;;2.88;;
39020;SDS011;25188;51.958;5.842;2023-07-16T10:36:02;9.90;;;3.60;;
39020;SDS011;25188;51.958;5.842;2023-07-16T10:38:27;6.00;;;2.58;;
39020;SDS011;25188;51.958;5.842;2023-07-16T10:40:53;6.32;;;2.78;;
39020;SDS011;25188;51.958;5.842;2023-07-16T10:43:20;4.95;;;2.15;;
39020;SDS011;25188;51.958;5.842;2023-07-16T10:45:46;8.32;;;2.90;;
39020;SDS011;25188;51.958;5.842;2023-07-16T10:48:12;7.03;;;3.13;;
39020;SDS011;25188;51.958;5.842;2023-07-16T10:50:38;6.20;;;2.85;;
39020;SDS011;25188;51.958;5.842;2023-07-16T10:53:04;6.20;;;2.58;;
39020;SDS011;25188;51.958;5.842;2023-07-16T10:55:29;7.30;;;2.28;;
39020;SDS011;25188;51.958;5.842;2023-07-16T10:57:57;5.95;;;2.97;;
39020;SDS011;25188;51.958;5.842;2023-07-16T11:00:23;5.90;;;3.00;;
39020;SDS011;25188;51.958;5.842;2023-07-16T11:02:49;9.57;;;2.90;;
39020;SDS011;25188;51.958;5.842;2023-07-16T11:05:16;6.90;;;2.72;;
39020;SDS011;25188;51.958;5.842;2023-07-16T11:07:47;6.72;;;2.25;;
39020;SDS011;25188;51.958;5.842;2023-07-16T11:10:17;7.15;;;2.67;;
39020;SDS011;25188;51.958;5.842;2023-07-16T11:12:43;5.47;;;2.35;;
39020;SDS011;25188;51.958;5.842;2023-07-16T11:15:10;10.82;;;2.70;;
39020;SDS011;25188;51.958;5.842;2023-07-16T11:17:39;6.55;;;2.45;;
39020;SDS011;25188;51.958;5.842;2023-07-16T11:20:06;5.20;;;2.33;;
39020;SDS011;25188;51.958;5.842;2023-07-16T11:22:36;6.05;;;3.13;;
39020;SDS011;25188;51.958;5.842;2023-07-16T11:25:03;5.70;;;2.38;;
39020;SDS011;25188;51.958;5.842;2023-07-16T11:27:37;7.40;;;2.72;;
39020;SDS011;25188;51.958;5.842;2023-07-16T11:30:06;5.90;;;2.60;;
39020;SDS011;25188;51.958;5.842;2023-07-16T11:32:34;6.03;;;2.38;;
39020;SDS011;25188;51.958;5.842;2023-07-16T11:37:33;7.65;;;2.35;;
39020;SDS011;25188;51.958;5.842;2023-07-16T11:40:04;6.43;;;2.55;;
39020;SDS011;25188;51.958;5.842;2023-07-16T11:42:34;6.70;;;2.60;;
39020;SDS011;25188;51.958;5.842;2023-07-16T11:45:04;6.93;;;2.25;;
39020;SDS011;25188;51.958;5.842;2023-07-16T11:47:41;4.35;;;2.00;;
39020;SDS011;25188;51.958;5.842;2023-07-16T11:50:07;6.07;;;2.80;;
39020;SDS011;25188;51.958;5.842;2023-07-16T11:52:33;6.78;;;2.70;;
39020;SDS011;25188;51.958;5.842;2023-07-16T11:54:59;5.43;;;2.03;;
39020;SDS011;25188;51.958;5.842;2023-07-16T11:57:25;7.38;;;2.42;;
39020;SDS011;25188;51.958;5.842;2023-07-16T11:59:51;5.93;;;2.83;;
39020;SDS011;25188;51.958;5.842;2023-07-16T12:02:16;7.82;;;2.47;;
39020;SDS011;25188;51.958;5.842;2023-07-16T12:04:42;5.75;;;2.40;;
39020;SDS011;25188;51.958;5.842;2023-07-16T12:07:08;5.50;;;2.30;;
39020;SDS011;25188;51.958;5.842;2023-07-16T12:09:33;7.63;;;2.63;;
39020;SDS011;25188;51.958;5.842;2023-07-16T12:11:59;6.43;;;2.15;;
39020;SDS011;25188;51.958;5.842;2023-07-16T12:14:25;5.00;;;2.05;;
39020;SDS011;25188;51.958;5.842;2023-07-16T12:16:51;6.25;;;2.28;;
39020;SDS011;25188;51.958;5.842;2023-07-16T12:19:17;5.25;;;2.20;;
39020;SDS011;25188;51.958;5.842;2023-07-16T12:21:42;7.30;;;2.75;;
39020;SDS011;25188;51.958;5.842;2023-07-16T12:24:08;6.78;;;2.78;;
39020;SDS011;25188;51.958;5.842;2023-07-16T12:26:34;5.68;;;1.95;;
39020;SDS011;25188;51.958;5.842;2023-07-16T12:29:00;6.13;;;2.20;;
39020;SDS011;25188;51.958;5.842;2023-07-16T12:31:33;6.50;;;2.63;;
39020;SDS011;25188;51.958;5.842;2023-07-16T12:33:59;5.43;;;2.00;;
39020;SDS011;25188;51.958;5.842;2023-07-16T12:36:29;5.78;;;2.28;;
39020;SDS011;25188;51.958;5.842;2023-07-16T12:38:55;5.55;;;2.00;;
39020;SDS011;25188;51.958;5.842;2023-07-16T12:41:21;4.88;;;2.33;;
39020;SDS011;25188;51.958;5.842;2023-07-16T12:43:46;8.00;;;2.30;;
39020;SDS011;25188;51.958;5.842;2023-07-16T12:46:12;6.95;;;2.10;;
39020;SDS011;25188;51.958;5.842;2023-07-16T12:48:38;5.05;;;1.85;;
39020;SDS011;25188;51.958;5.842;2023-07-16T12:51:03;5.47;;;2.03;;
39020;SDS011;25188;51.958;5.842;2023-07-16T12:53:29;5.18;;;1.80;;
39020;SDS011;25188;51.958;5.842;2023-07-16T12:55:55;5.97;;;2.30;;
39020;SDS011;25188;51.958;5.842;2023-07-16T12:58:21;5.15;;;2.10;;
39020;SDS011;25188;51.958;5.842;2023-07-16T13:00:47;4.65;;;1.88;;
39020;SDS011;25188;51.958;5.842;2023-07-16T13:03:12;7.50;;;2.00;;
39020;SDS011;25188;51.958;5.842;2023-07-16T13:05:41;6.10;;;2.00;;
39020;SDS011;25188;51.958;5.842;2023-07-16T13:08:10;4.97;;;1.77;;
39020;SDS011;25188;51.958;5.842;2023-07-16T13:10:36;4.47;;;1.85;;
39020;SDS011;25188;51.958;5.842;2023-07-16T13:13:01;6.57;;;2.17;;
39020;SDS011;25188;51.958;5.842;2023-07-16T13:15:28;4.38;;;1.85;;
39020;SDS011;25188;51.958;5.842;2023-07-16T13:17:54;8.07;;;2.42;;
39020;SDS011;25188;51.958;5.842;2023-07-16T13:20:20;6.78;;;1.92;;
39020;SDS011;25188;51.958;5.842;2023-07-16T13:22:46;5.80;;;1.95;;
39020;SDS011;25188;51.958;5.842;2023-07-16T13:25:12;5.28;;;1.67;;
39020;SDS011;25188;51.958;5.842;2023-07-16T13:27:38;4.82;;;2.20;;
39020;SDS011;25188;51.958;5.842;2023-07-16T13:30:04;4.60;;;2.15;;
39020;SDS011;25188;51.958;5.842;2023-07-16T13:32:31;4.35;;;2.22;;
39020;SDS011;25188;51.958;5.842;2023-07-16T13:34:56;5.78;;;2.13;;
39020;SDS011;25188;51.958;5.842;2023-07-16T13:37:22;4.95;;;2.22;;
39020;SDS011;25188;51.958;5.842;2023-07-16T13:39:48;5.63;;;2.08;;
39020;SDS011;25188;51.958;5.842;2023-07-16T13:42:13;3.95;;;1.80;;
39020;SDS011;25188;51.958;5.842;2023-07-16T13:44:39;3.80;;;1.50;;
39020;SDS011;25188;51.958;5.842;2023-07-16T13:47:04;5.40;;;1.63;;
39020;SDS011;25188;51.958;5.842;2023-07-16T13:49:30;4.25;;;1.58;;
39020;SDS011;25188;51.958;5.842;2023-07-16T13:51:56;4.00;;;1.45;;
39020;SDS011;25188;51.958;5.842;2023-07-16T13:54:21;6.75;;;1.92;;
39020;SDS011;25188;51.958;5.842;2023-07-16T13:56:48;4.97;;;2.03;;
39020;SDS011;25188;51.958;5.842;2023-07-16T13:59:14;3.58;;;1.60;;
39020;SDS011;25188;51.958;5.842;2023-07-16T14:01:40;4.28;;;1.60;;
39020;SDS011;25188;51.958;5.842;2023-07-16T14:04:06;4.07;;;1.55;;
39020;SDS011;25188;51.958;5.842;2023-07-16T14:06:32;3.35;;;1.50;;
39020;SDS011;25188;51.958;5.842;2023-07-16T14:08:58;3.33;;;1.10;;
39020;SDS011;25188;51.958;5.842;2023-07-16T14:11:24;3.83;;;1.20;;
39020;SDS011;25188;51.958;5.842;2023-07-16T14:13:50;4.32;;;1.38;;
39020;SDS011;25188;51.958;5.842;2023-07-16T14:16:17;2.95;;;1.20;;
39020;SDS011;25188;51.958;5.842;2023-07-16T14:18:43;2.95;;;1.00;;
39020;SDS011;25188;51.958;5.842;2023-07-16T14:21:09;5.88;;;1.20;;
39020;SDS011;25188;51.958;5.842;2023-07-16T14:23:35;2.55;;;1.00;;
39020;SDS011;25188;51.958;5.842;2023-07-16T14:26:00;2.85;;;1.00;;
39020;SDS011;25188;51.958;5.842;2023-07-16T14:28:28;5.18;;;1.00;;
39020;SDS011;25188;51.958;5.842;2023-07-16T14:30:54;4.05;;;1.00;;
39020;SDS011;25188;51.958;5.842;2023-07-16T14:33:20;2.95;;;1.20;;
39020;SDS011;25188;51.958;5.842;2023-07-16T14:35:46;3.78;;;0.90;;
39020;SDS011;25188;51.958;5.842;2023-07-16T14:38:12;4.57;;;1.27;;
39020;SDS011;25188;51.958;5.842;2023-07-16T14:40:38;3.28;;;1.13;;
39020;SDS011;25188;51.958;5.842;2023-07-16T14:43:04;4.63;;;1.17;;
39020;SDS011;25188;51.958;5.842;2023-07-16T14:45:31;2.95;;;0.90;;
39020;SDS011;25188;51.958;5.842;2023-07-16T14:47:57;5.13;;;1.05;;
39020;SDS011;25188;51.958;5.842;2023-07-16T14:50:23;3.28;;;0.85;;